Terminal Aerodrome Forecast
Issued by NWS

Home | Current Version | Previous Version | Graphics & Text | Print | Product List | Glossary On
Versions: 1 2 3 4 5 6 7 8 9 10 11 12 13 14 15 16 17 18 19 20 21 22 23
000
FTUS43 KABR 251500 AAA
TAFPIR
TAF AMD
KPIR 251547Z 2516/2612 31011KT P6SM OVC025
     FM251800 31008KT P6SM OVC030
     FM252100 26007KT P6SM SCT100=

USA.gov is the U.S. government's official web portal to all federal, state and local government web resources and services.